Roaring Branch, Pennsylvania
Current Conditions -  °F | °C
As of 7:02 PM on Thursday 18 Dec 2014 (Local Time) from KIPT Reporting Station
Overcast Overcast  
Wind Chill: -3°   Ceiling: 3000
Heat Index:   Visibility: 10mi
Dew Point: -3°   Wind: 10mph
Humidity: 73%   Direction: 270°W
Pressure: 30.05"   Gusts: NA
Location:  41.57°N, 76.95°W
Report Text: KIPT 190002Z 27009KT 10SM OVC030 01/M03 A3005 RMK AO2 T00111033
Loading
Personal Weather Stations






























Interactive Weather Map New forecast layout! Learn more

10-Day Weather Forecast

Advertisements
Track Severe Weather on mobile